Time;durP1;ratioP1;P1;durP2;ratioP2;P2;SDS_P1;SDS_P2;PMS_P1;PMS_P2;Temp;Humidity;BMP_temperature;BMP_pressure;BME280_temperature;BME280_humidity;BME280_pressure;Samples;Min_cycle;Max_cycle;Signal;HPM_P1;HPM_P2
2023/08/09 00:02:13;;;;;;;2.80;2.15;;;;;;;;;;5079634;28;20514;-76
2023/08/09 00:04:39;;;;;;;2.85;1.90;;;;;;;;;;5072075;28;20655;-75
2023/08/09 00:07:05;;;;;;;2.25;1.73;;;;;;;;;;5076272;28;20123;-76
2023/08/09 00:09:30;;;;;;;2.15;1.95;;;;;;;;;;5080898;28;20028;-76
2023/08/09 00:11:55;;;;;;;2.13;1.85;;;;;;;;;;5082348;28;20031;-76
2023/08/09 00:14:21;;;;;;;3.47;2.08;;;;;;;;;;5082730;28;20126;-75
2023/08/09 00:16:46;;;;;;;3.97;2.33;;;;;;;;;;5065537;28;20027;-75
2023/08/09 00:19:11;;;;;;;2.90;2.45;;;;;;;;;;5082383;28;20036;-75
2023/08/09 00:21:37;;;;;;;4.45;2.20;;;;;;;;;;5078452;28;20024;-78
2023/08/09 00:24:03;;;;;;;3.08;2.10;;;;;;;;;;5082406;28;20058;-75
2023/08/09 00:26:29;;;;;;;2.65;2.30;;;;;;;;;;5079465;28;20020;-76
2023/08/09 00:28:55;;;;;;;2.47;2.28;;;;;;;;;;5075932;28;20489;-75
2023/08/09 00:31:20;;;;;;;4.05;2.28;;;;;;;;;;5062117;28;20028;-76
2023/08/09 00:33:45;;;;;;;3.30;2.13;;;;;;;;;;5073448;28;20051;-75
2023/08/09 00:36:11;;;;;;;3.25;2.00;;;;;;;;;;5080944;28;20077;-75
2023/08/09 00:38:36;;;;;;;2.10;1.90;;;;;;;;;;5079042;28;20055;-76
2023/08/09 00:41:02;;;;;;;3.88;1.70;;;;;;;;;;5080119;28;20028;-76
2023/08/09 00:43:27;;;;;;;1.95;1.70;;;;;;;;;;5074503;28;20024;-76
2023/08/09 00:45:53;;;;;;;4.82;2.10;;;;;;;;;;5062251;28;20057;-76
2023/08/09 00:48:18;;;;;;;3.17;2.08;;;;;;;;;;5069215;28;20422;-75
2023/08/09 00:50:43;;;;;;;3.65;2.20;;;;;;;;;;5078355;28;20028;-76
2023/08/09 00:53:09;;;;;;;4.65;2.05;;;;;;;;;;5080066;28;20062;-76
2023/08/09 00:55:34;;;;;;;2.75;1.92;;;;;;;;;;5078740;28;20051;-75
2023/08/09 00:58:00;;;;;;;2.38;1.80;;;;;;;;;;5065576;28;20029;-76
2023/08/09 01:00:25;;;;;;;2.05;1.70;;;;;;;;;;5066103;28;20456;-76
2023/08/09 01:02:50;;;;;;;5.80;2.28;;;;;;;;;;5079074;28;20354;-76
2023/08/09 01:05:16;;;;;;;3.58;2.10;;;;;;;;;;5067735;28;20042;-75
2023/08/09 01:07:53;;;;;;;2.47;2.20;;;;;;;;;;5079125;28;20021;-75
2023/08/09 01:10:22;;;;;;;3.55;2.20;;;;;;;;;;5078141;28;20020;-75
2023/08/09 01:12:52;;;;;;;2.30;2.10;;;;;;;;;;5080053;28;20026;-75
2023/08/09 01:15:19;;;;;;;2.53;2.20;;;;;;;;;;5080186;28;20047;-75
2023/08/09 01:17:46;;;;;;;5.72;2.53;;;;;;;;;;5078236;28;20032;-76
2023/08/09 01:20:11;;;;;;;3.70;2.60;;;;;;;;;;5065409;28;20277;-76
2023/08/09 01:22:38;;;;;;;2.78;2.13;;;;;;;;;;5081033;28;20706;-76
2023/08/09 01:25:06;;;;;;;3.13;2.40;;;;;;;;;;5078677;28;20051;-75
2023/08/09 01:27:39;;;;;;;3.05;2.35;;;;;;;;;;5079317;28;20111;-75
2023/08/09 01:30:06;;;;;;;4.00;2.42;;;;;;;;;;5063150;28;20110;-75
2023/08/09 01:32:31;;;;;;;3.67;1.98;;;;;;;;;;5078084;28;20059;-75
2023/08/09 01:34:58;;;;;;;2.15;1.73;;;;;;;;;;5081931;28;20063;-76
2023/08/09 01:37:28;;;;;;;2.20;2.00;;;;;;;;;;5067955;28;20024;-77
2023/08/09 01:39:56;;;;;;;3.58;1.98;;;;;;;;;;5076258;28;20045;-77
2023/08/09 01:42:22;;;;;;;2.53;2.05;;;;;;;;;;5064362;28;20157;-75
2023/08/09 01:44:48;;;;;;;3.88;2.00;;;;;;;;;;5065244;28;20305;-76
2023/08/09 01:47:14;;;;;;;3.88;1.90;;;;;;;;;;5075995;28;20093;-76
2023/08/09 01:49:47;;;;;;;3.50;2.00;;;;;;;;;;5080145;28;20081;-77
2023/08/09 01:52:12;;;;;;;3.10;1.95;;;;;;;;;;5079117;28;20032;-75
2023/08/09 01:54:38;;;;;;;3.33;1.92;;;;;;;;;;5068385;28;20370;-75
2023/08/09 01:57:03;;;;;;;2.03;1.92;;;;;;;;;;5072793;28;20023;-74
2023/08/09 01:59:29;;;;;;;4.82;2.08;;;;;;;;;;5069648;28;20016;-75
2023/08/09 02:01:54;;;;;;;3.05;1.90;;;;;;;;;;5073805;28;20024;-75
2023/08/09 02:04:20;;;;;;;2.67;2.00;;;;;;;;;;5078072;28;20034;-76
2023/08/09 02:06:45;;;;;;;3.85;2.25;;;;;;;;;;5079742;28;20316;-77
2023/08/09 02:09:10;;;;;;;2.95;2.35;;;;;;;;;;5070925;28;20123;-74
2023/08/09 02:11:36;;;;;;;2.90;2.08;;;;;;;;;;5071855;28;20063;-75
2023/08/09 02:14:01;;;;;;;5.15;2.03;;;;;;;;;;5081501;28;20083;-75
2023/08/09 02:16:27;;;;;;;2.75;1.90;;;;;;;;;;5080944;28;20052;-74
2023/08/09 02:18:52;;;;;;;7.53;2.00;;;;;;;;;;5079897;28;20024;-73
2023/08/09 02:21:17;;;;;;;6.20;1.95;;;;;;;;;;5080934;28;20428;-76
2023/08/09 02:23:43;;;;;;;3.53;2.10;;;;;;;;;;5083042;28;20016;-75
2023/08/09 02:26:08;;;;;;;3.15;2.20;;;;;;;;;;5077690;28;20123;-75
2023/08/09 02:28:33;;;;;;;2.15;1.80;;;;;;;;;;5076389;28;20035;-76
2023/08/09 02:30:59;;;;;;;4.28;2.05;;;;;;;;;;5064953;28;20022;-75
2023/08/09 02:33:24;;;;;;;3.22;2.00;;;;;;;;;;5077535;28;20038;-76
2023/08/09 02:35:52;;;;;;;2.97;2.08;;;;;;;;;;5061294;28;20127;-75
2023/08/09 02:38:18;;;;;;;3.22;2.42;;;;;;;;;;5078499;28;20084;-77
2023/08/09 02:40:43;;;;;;;2.33;2.10;;;;;;;;;;5077345;28;20028;-75
2023/08/09 02:43:08;;;;;;;5.78;2.20;;;;;;;;;;5078471;28;20038;-77
2023/08/09 02:45:34;;;;;;;4.93;2.15;;;;;;;;;;5064701;28;20038;-74
2023/08/09 02:47:59;;;;;;;2.90;2.10;;;;;;;;;;5062765;28;20110;-77
2023/08/09 02:50:24;;;;;;;2.97;1.83;;;;;;;;;;5066717;28;20063;-74
2023/08/09 02:52:50;;;;;;;2.83;1.90;;;;;;;;;;5076747;28;20051;-74
2023/08/09 02:55:17;;;;;;;4.90;2.03;;;;;;;;;;5077641;28;20071;-74
2023/08/09 02:57:42;;;;;;;2.95;2.20;;;;;;;;;;5079292;28;20051;-75
2023/08/09 03:00:08;;;;;;;4.22;2.03;;;;;;;;;;5059491;28;21093;-75
2023/08/09 03:02:33;;;;;;;3.47;2.00;;;;;;;;;;5065942;28;20413;-75
2023/08/09 03:05:00;;;;;;;4.40;2.13;;;;;;;;;;5062311;28;20032;-75
2023/08/09 03:07:25;;;;;;;2.72;2.30;;;;;;;;;;5070789;28;20022;-76
2023/08/09 03:09:51;;;;;;;2.83;2.08;;;;;;;;;;5065056;28;20355;-75
2023/08/09 03:12:16;;;;;;;2.40;1.90;;;;;;;;;;5077713;28;20481;-75
2023/08/09 03:14:41;;;;;;;3.50;2.28;;;;;;;;;;5074362;28;20094;-74
2023/08/09 03:17:07;;;;;;;3.97;2.50;;;;;;;;;;5065275;28;20016;-75
2023/08/09 03:19:32;;;;;;;2.63;2.25;;;;;;;;;;5080859;28;20403;-76
2023/08/09 03:21:57;;;;;;;2.20;2.00;;;;;;;;;;5080039;28;20020;-75
2023/08/09 03:24:23;;;;;;;3.13;1.90;;;;;;;;;;5077741;28;20032;-75
2023/08/09 03:26:48;;;;;;;5.57;2.30;;;;;;;;;;5075714;28;20028;-77
2023/08/09 03:29:14;;;;;;;3.30;2.15;;;;;;;;;;5077994;28;20044;-75
2023/08/09 03:31:39;;;;;;;2.67;2.30;;;;;;;;;;5068795;28;20024;-75
2023/08/09 03:34:04;;;;;;;3.28;2.30;;;;;;;;;;5065013;28;20036;-76
2023/08/09 03:36:30;;;;;;;2.50;2.30;;;;;;;;;;5066543;28;20012;-74
2023/08/09 03:38:56;;;;;;;3.58;2.00;;;;;;;;;;5076330;28;20071;-75
2023/08/09 03:41:22;;;;;;;5.57;2.33;;;;;;;;;;5075395;28;20045;-75
2023/08/09 03:43:47;;;;;;;7.63;2.38;;;;;;;;;;5077150;28;20032;-78
2023/08/09 03:46:13;;;;;;;3.10;2.00;;;;;;;;;;5077932;28;20036;-75
2023/08/09 03:48:38;;;;;;;3.55;1.98;;;;;;;;;;5058700;28;20372;-74
2023/08/09 03:51:03;;;;;;;2.83;1.88;;;;;;;;;;5076628;28;20027;-75
2023/08/09 03:53:29;;;;;;;5.20;2.17;;;;;;;;;;5076609;28;20067;-74
2023/08/09 03:55:54;;;;;;;3.75;1.92;;;;;;;;;;5079538;28;20070;-75
2023/08/09 03:58:20;;;;;;;4.15;2.30;;;;;;;;;;5066254;28;20063;-76
2023/08/09 04:00:45;;;;;;;4.85;2.22;;;;;;;;;;5068666;28;20329;-75
2023/08/09 04:03:12;;;;;;;8.10;2.60;;;;;;;;;;5058226;28;20415;-74
2023/08/09 04:05:37;;;;;;;4.63;2.50;;;;;;;;;;5060435;28;20034;-74
2023/08/09 04:08:03;;;;;;;6.82;2.50;;;;;;;;;;5062082;28;20282;-75
2023/08/09 04:10:28;;;;;;;3.97;2.50;;;;;;;;;;5064611;28;20102;-74
2023/08/09 04:12:53;;;;;;;4.15;2.20;;;;;;;;;;5065393;28;20107;-76
2023/08/09 04:15:21;;;;;;;4.03;2.22;;;;;;;;;;5068276;28;20040;-76
2023/08/09 04:17:48;;;;;;;4.30;2.35;;;;;;;;;;5066735;28;20088;-75
2023/08/09 04:20:14;;;;;;;2.33;2.03;;;;;;;;;;5074802;28;20039;-73
2023/08/09 04:22:39;;;;;;;3.55;2.47;;;;;;;;;;5076075;28;20020;-73
2023/08/09 04:25:05;;;;;;;3.90;2.30;;;;;;;;;;5076299;28;20375;-72
2023/08/09 04:27:32;;;;;;;2.53;2.33;;;;;;;;;;5070032;28;20024;-75
2023/08/09 04:29:57;;;;;;;3.80;2.67;;;;;;;;;;5070076;28;20119;-73
2023/08/09 04:32:22;;;;;;;2.90;2.60;;;;;;;;;;5078711;28;20030;-74
2023/08/09 04:34:48;;;;;;;3.63;2.60;;;;;;;;;;5063919;28;20462;-76
2023/08/09 04:37:13;;;;;;;3.22;2.65;;;;;;;;;;5068749;28;20454;-74
2023/08/09 04:39:38;;;;;;;7.28;2.88;;;;;;;;;;5066152;28;20052;-74
2023/08/09 04:42:04;;;;;;;5.40;2.65;;;;;;;;;;5068630;28;21554;-73
2023/08/09 04:44:30;;;;;;;5.07;2.50;;;;;;;;;;5065604;28;20024;-74
2023/08/09 04:46:56;;;;;;;9.88;3.08;;;;;;;;;;5063097;28;20078;-74
2023/08/09 04:49:21;;;;;;;4.40;2.65;;;;;;;;;;5080346;28;20419;-74
2023/08/09 04:51:47;;;;;;;2.90;2.60;;;;;;;;;;5075373;28;20923;-74
2023/08/09 04:54:12;;;;;;;3.75;2.55;;;;;;;;;;5068033;28;20040;-74
2023/08/09 04:56:38;;;;;;;4.85;2.60;;;;;;;;;;5082237;28;20028;-74
2023/08/09 04:59:03;;;;;;;3.88;2.70;;;;;;;;;;5078749;28;20137;-74
2023/08/09 05:01:29;;;;;;;3.10;2.55;;;;;;;;;;5081574;28;20097;-74
2023/08/09 05:03:54;;;;;;;4.30;2.67;;;;;;;;;;5079478;28;20020;-77
2023/08/09 05:06:20;;;;;;;4.22;2.80;;;;;;;;;;5078325;28;20355;-75
2023/08/09 05:08:45;;;;;;;5.28;3.13;;;;;;;;;;5078027;28;20042;-73
2023/08/09 05:11:11;;;;;;;6.25;3.03;;;;;;;;;;5078427;28;20036;-74
2023/08/09 05:13:36;;;;;;;6.70;2.88;;;;;;;;;;5080822;28;20042;-73
2023/08/09 05:16:01;;;;;;;2.72;2.22;;;;;;;;;;5078624;28;20063;-74
2023/08/09 05:18:27;;;;;;;2.47;2.28;;;;;;;;;;5079407;28;20110;-73
2023/08/09 05:20:52;;;;;;;5.78;2.70;;;;;;;;;;5080152;28;20028;-73
2023/08/09 05:23:17;;;;;;;2.95;1.90;;;;;;;;;;5079704;28;20051;-73
2023/08/09 05:25:43;;;;;;;2.20;2.00;;;;;;;;;;5078033;28;20092;-79
2023/08/09 05:28:08;;;;;;;2.45;2.25;;;;;;;;;;5078607;28;20035;-75
2023/08/09 05:30:33;;;;;;;2.70;2.40;;;;;;;;;;5079766;28;20416;-73
2023/08/09 05:32:59;;;;;;;2.55;2.35;;;;;;;;;;5078407;28;20031;-74
2023/08/09 05:35:26;;;;;;;4.25;2.17;;;;;;;;;;5079471;28;20040;-75
2023/08/09 05:37:52;;;;;;;2.28;2.00;;;;;;;;;;5079428;28;20024;-74
2023/08/09 05:40:17;;;;;;;3.67;2.33;;;;;;;;;;5080477;28;20058;-76
2023/08/09 05:42:43;;;;;;;2.25;2.05;;;;;;;;;;5078366;28;20339;-76
2023/08/09 05:45:09;;;;;;;2.20;2.00;;;;;;;;;;5079067;28;20344;-77
2023/08/09 05:47:34;;;;;;;2.30;2.08;;;;;;;;;;5078798;28;20028;-74
2023/08/09 05:49:59;;;;;;;2.08;1.98;;;;;;;;;;5077561;28;20028;-75
2023/08/09 05:52:25;;;;;;;3.22;1.90;;;;;;;;;;5082317;28;20138;-75
2023/08/09 05:54:50;;;;;;;3.97;1.90;;;;;;;;;;5079266;28;20453;-74
2023/08/09 05:57:15;;;;;;;7.60;1.90;;;;;;;;;;5081008;28;20017;-75
2023/08/09 05:59:41;;;;;;;5.45;2.20;;;;;;;;;;5079367;28;20020;-75
2023/08/09 06:02:07;;;;;;;2.53;2.17;;;;;;;;;;5077869;28;20039;-75
2023/08/09 06:04:35;;;;;;;2.85;1.80;;;;;;;;;;5077265;28;20083;-75
2023/08/09 06:07:00;;;;;;;3.30;2.05;;;;;;;;;;5077205;28;20035;-75
2023/08/09 06:09:26;;;;;;;3.15;1.83;;;;;;;;;;5078152;28;20422;-75
2023/08/09 06:11:51;;;;;;;3.30;2.10;;;;;;;;;;5079708;28;20332;-74
2023/08/09 06:14:16;;;;;;;1.83;1.73;;;;;;;;;;5078960;28;20029;-75
2023/08/09 06:16:45;;;;;;;3.22;1.95;;;;;;;;;;5079404;28;20027;-75
2023/08/09 06:19:10;;;;;;;2.47;1.80;;;;;;;;;;5078613;28;20127;-75
2023/08/09 06:21:36;;;;;;;5.40;1.98;;;;;;;;;;5078952;28;20114;-75
2023/08/09 06:24:01;;;;;;;3.15;1.90;;;;;;;;;;5079363;28;20034;-76
2023/08/09 06:26:26;;;;;;;2.67;1.55;;;;;;;;;;5077939;28;20401;-74
2023/08/09 06:28:52;;;;;;;2.33;1.60;;;;;;;;;;5079306;28;20028;-75
2023/08/09 06:31:17;;;;;;;3.15;1.98;;;;;;;;;;5080820;28;20124;-77
2023/08/09 06:33:43;;;;;;;1.90;1.75;;;;;;;;;;5078310;28;20028;-75
2023/08/09 06:36:09;;;;;;;2.40;1.83;;;;;;;;;;5078038;28;20399;-75
2023/08/09 06:38:34;;;;;;;2.03;1.83;;;;;;;;;;5079432;28;20576;-75
2023/08/09 06:40:59;;;;;;;2.72;1.55;;;;;;;;;;5082035;28;20024;-74
2023/08/09 06:43:25;;;;;;;3.83;1.88;;;;;;;;;;5077056;28;20027;-76
2023/08/09 06:45:51;;;;;;;1.77;1.60;;;;;;;;;;5077297;28;20333;-74
2023/08/09 06:48:17;;;;;;;1.55;1.45;;;;;;;;;;5077762;28;20076;-76
2023/08/09 06:50:42;;;;;;;1.85;1.75;;;;;;;;;;5077172;28;20032;-78
2023/08/09 06:53:08;;;;;;;3.40;1.73;;;;;;;;;;5079952;28;20119;-75
2023/08/09 06:55:33;;;;;;;2.95;1.80;;;;;;;;;;5074012;28;20028;-74
2023/08/09 06:57:58;;;;;;;3.58;1.85;;;;;;;;;;5074778;28;20016;-74
2023/08/09 07:00:24;;;;;;;1.88;1.73;;;;;;;;;;5076871;28;20168;-74
2023/08/09 07:02:50;;;;;;;4.05;2.15;;;;;;;;;;5076783;28;20051;-74
2023/08/09 07:05:18;;;;;;;3.10;2.80;;;;;;;;;;5078754;28;20474;-74
2023/08/09 07:07:44;;;;;;;3.42;2.33;;;;;;;;;;5077360;28;20031;-75
2023/08/09 07:10:10;;;;;;;3.75;2.50;;;;;;;;;;5076061;28;20035;-74
2023/08/09 07:12:36;;;;;;;5.00;3.42;;;;;;;;;;5076331;28;20042;-74
2023/08/09 07:15:01;;;;;;;4.40;3.75;;;;;;;;;;5078283;28;20028;-75
2023/08/09 07:17:27;;;;;;;2.70;2.47;;;;;;;;;;5077903;28;20023;-75
2023/08/09 07:19:52;;;;;;;2.08;1.98;;;;;;;;;;5079378;28;20027;-74
2023/08/09 07:22:17;;;;;;;2.35;1.70;;;;;;;;;;5078087;28;20544;-76
2023/08/09 07:24:43;;;;;;;4.25;2.35;;;;;;;;;;5077671;28;20354;-76
2023/08/09 07:27:08;;;;;;;3.35;1.98;;;;;;;;;;5078179;28;20402;-75
2023/08/09 07:29:33;;;;;;;2.65;2.00;;;;;;;;;;5078432;28;20020;-76
2023/08/09 07:31:59;;;;;;;3.33;2.33;;;;;;;;;;5078135;28;20016;-75
2023/08/09 07:34:24;;;;;;;4.03;2.40;;;;;;;;;;5078986;28;20046;-75
2023/08/09 07:36:49;;;;;;;4.20;2.08;;;;;;;;;;5080680;28;20036;-75
2023/08/09 07:39:15;;;;;;;1.92;1.73;;;;;;;;;;5079468;28;20113;-75
2023/08/09 07:41:40;;;;;;;3.65;1.90;;;;;;;;;;5078764;28;20024;-76
2023/08/09 07:44:05;;;;;;;2.22;1.52;;;;;;;;;;5075533;28;20487;-75
2023/08/09 07:46:30;;;;;;;1.90;1.80;;;;;;;;;;5079565;28;20491;-75
2023/08/09 07:48:56;;;;;;;2.47;1.90;;;;;;;;;;5076600;28;20372;-75
2023/08/09 07:51:22;;;;;;;3.15;2.08;;;;;;;;;;5076570;28;21027;-75
2023/08/09 07:53:47;;;;;;;2.13;1.92;;;;;;;;;;5079910;28;20031;-75
2023/08/09 07:56:14;;;;;;;2.13;1.80;;;;;;;;;;5076736;28;20118;-74
2023/08/09 07:58:39;;;;;;;3.88;2.08;;;;;;;;;;5079753;28;20430;-76
2023/08/09 08:01:04;;;;;;;3.45;2.17;;;;;;;;;;5076770;28;20036;-76
2023/08/09 08:03:30;;;;;;;7.18;2.20;;;;;;;;;;5076172;28;20028;-76
2023/08/09 08:05:56;;;;;;;2.95;1.80;;;;;;;;;;5079478;28;20352;-75
2023/08/09 08:08:21;;;;;;;2.75;1.98;;;;;;;;;;5080059;28;21113;-76
2023/08/09 08:10:47;;;;;;;1.70;1.60;;;;;;;;;;5082764;28;20103;-77
2023/08/09 08:13:13;;;;;;;3.05;1.50;;;;;;;;;;5079516;28;20067;-77
2023/08/09 08:15:38;;;;;;;1.45;1.35;;;;;;;;;;5081350;28;20025;-78
2023/08/09 08:18:04;;;;;;;1.85;1.33;;;;;;;;;;5081377;28;20027;-77
2023/08/09 08:20:29;;;;;;;3.97;1.60;;;;;;;;;;5081155;28;20032;-77
2023/08/09 08:22:55;;;;;;;2.72;1.65;;;;;;;;;;5075821;28;20024;-76
2023/08/09 08:25:20;;;;;;;2.35;1.55;;;;;;;;;;5080688;28;20035;-79
2023/08/09 08:27:46;;;;;;;7.85;1.60;;;;;;;;;;5074686;28;20123;-77
2023/08/09 08:30:18;;;;;;;1.58;1.48;;;;;;;;;;5081239;28;20039;-76
2023/08/09 08:32:45;;;;;;;4.53;1.65;;;;;;;;;;5080794;28;20066;-77
2023/08/09 08:35:13;;;;;;;2.08;1.38;;;;;;;;;;5081169;28;20086;-77
2023/08/09 08:37:39;;;;;;;1.63;1.52;;;;;;;;;;5081713;28;20102;-78
2023/08/09 08:40:07;;;;;;;1.40;1.30;;;;;;;;;;5081013;28;20048;-77
2023/08/09 08:42:33;;;;;;;2.58;1.50;;;;;;;;;;5083941;28;20143;-77
2023/08/09 08:44:58;;;;;;;2.15;1.50;;;;;;;;;;5082422;28;20107;-75
2023/08/09 08:47:25;;;;;;;1.33;1.20;;;;;;;;;;5083008;28;20039;-77
2023/08/09 08:49:50;;;;;;;1.33;1.23;;;;;;;;;;5082234;28;20048;-75
2023/08/09 08:52:18;;;;;;;3.50;1.70;;;;;;;;;;5079774;28;20156;-75
2023/08/09 08:54:43;;;;;;;1.42;1.33;;;;;;;;;;5078746;28;20036;-76
2023/08/09 08:57:08;;;;;;;3.90;1.42;;;;;;;;;;5076755;28;20032;-77
2023/08/09 08:59:34;;;;;;;3.33;1.33;;;;;;;;;;5078272;28;20448;-77
2023/08/09 09:02:02;;;;;;;2.05;1.17;;;;;;;;;;5075886;28;20115;-77
2023/08/09 09:04:27;;;;;;;1.40;1.30;;;;;;;;;;5076600;28;20035;-81
2023/08/09 09:06:52;;;;;;;1.77;1.30;;;;;;;;;;5076766;28;20108;-77
2023/08/09 09:09:18;;;;;;;2.13;1.50;;;;;;;;;;5079439;28;20035;-77
2023/08/09 09:11:43;;;;;;;1.95;1.00;;;;;;;;;;5077072;28;20028;-75
2023/08/09 09:14:09;;;;;;;1.30;1.20;;;;;;;;;;5074877;28;20059;-76
2023/08/09 09:16:35;;;;;;;2.90;1.30;;;;;;;;;;5077054;28;20039;-78
2023/08/09 09:19:00;;;;;;;1.88;1.40;;;;;;;;;;5076676;28;20028;-76
2023/08/09 09:21:30;;;;;;;1.40;1.30;;;;;;;;;;5080145;28;20347;-78
2023/08/09 09:23:55;;;;;;;4.70;1.40;;;;;;;;;;5076148;28;20031;-81
2023/08/09 09:26:20;;;;;;;1.95;1.30;;;;;;;;;;5076815;28;20024;-78
2023/08/09 09:28:47;;;;;;;1.10;1.00;;;;;;;;;;5074636;28;20070;-76
2023/08/09 09:31:13;;;;;;;1.30;1.20;;;;;;;;;;5077323;28;20024;-76
2023/08/09 09:33:43;;;;;;;1.20;1.10;;;;;;;;;;5076540;28;20024;-75
2023/08/09 09:36:12;;;;;;;1.15;1.13;;;;;;;;;;5076772;28;20039;-77
2023/08/09 09:38:38;;;;;;;1.10;1.10;;;;;;;;;;5073408;28;20051;-78
2023/08/09 09:41:03;;;;;;;1.20;1.10;;;;;;;;;;5076601;28;20360;-82
2023/08/09 09:43:32;;;;;;;1.50;1.30;;;;;;;;;;5074857;28;20042;-78
2023/08/09 09:45:57;;;;;;;;;;;;;;;;;;5076346;28;20028;-77
2023/08/09 09:48:23;;;;;;;1.60;1.07;;;;;;;;;;5074912;28;20516;-83
2023/08/09 09:50:49;;;;;;;2.17;1.30;;;;;;;;;;5076581;28;20166;-78
2023/08/09 09:53:15;;;;;;;2.67;1.27;;;;;;;;;;5075530;28;20159;-77
2023/08/09 09:55:41;;;;;;;0.90;0.90;;;;;;;;;;5074707;28;20166;-75
2023/08/09 09:58:07;;;;;;;1.08;0.90;;;;;;;;;;5070840;28;20472;-81
2023/08/09 10:00:32;;;;;;;1.23;1.08;;;;;;;;;;5075815;28;20012;-78
2023/08/09 10:03:01;;;;;;;1.67;1.23;;;;;;;;;;5072985;28;21279;-79
2023/08/09 10:05:37;;;;;;;1.45;0.90;;;;;;;;;;5070289;28;20035;-76
2023/08/09 10:08:07;;;;;;;2.22;1.20;;;;;;;;;;5074316;28;20121;-76
2023/08/09 10:10:33;;;;;;;1.60;1.30;;;;;;;;;;5073267;28;20025;-78
2023/08/09 10:12:58;;;;;;;1.15;0.95;;;;;;;;;;5070690;28;20027;-77
2023/08/09 10:15:27;;;;;;;1.75;1.10;;;;;;;;;;5073604;28;20094;-78
2023/08/09 10:18:02;;;;;;;1.15;1.05;;;;;;;;;;5072581;28;20114;-76
2023/08/09 10:20:28;;;;;;;1.45;1.23;;;;;;;;;;5070110;28;20040;-79
2023/08/09 10:22:56;;;;;;;1.60;1.20;;;;;;;;;;5070341;28;20059;-79
2023/08/09 10:25:40;;;;;;;0.80;0.80;;;;;;;;;;5070010;28;20028;-77
2023/08/09 10:28:05;;;;;;;1.33;1.23;;;;;;;;;;5070497;28;20083;-79
2023/08/09 10:30:41;;;;;;;2.33;1.10;;;;;;;;;;5071565;28;20027;-77
2023/08/09 10:33:07;;;;;;;1.10;1.02;;;;;;;;;;5072675;28;20025;-81
2023/08/09 10:35:52;;;;;;;1.00;1.00;;;;;;;;;;5070762;28;20029;-80
2023/08/09 10:38:18;;;;;;;1.35;1.05;;;;;;;;;;5073108;28;20066;-76
2023/08/09 10:40:43;;;;;;;1.63;1.13;;;;;;;;;;5074440;28;20063;-75
2023/08/09 10:43:20;;;;;;;1.10;1.00;;;;;;;;;;5072343;28;20443;-79
2023/08/09 10:45:46;;;;;;;2.55;1.10;;;;;;;;;;5073903;28;20040;-80
2023/08/09 10:48:27;;;;;;;2.03;0.93;;;;;;;;;;5073033;28;20027;-82
2023/08/09 10:51:07;;;;;;;1.02;0.75;;;;;;;;;;5071551;28;20093;-76
2023/08/09 10:53:52;;;;;;;1.48;0.95;;;;;;;;;;5072387;28;20062;-77
2023/08/09 10:56:32;;;;;;;3.38;1.23;;;;;;;;;;5073929;28;20599;-77
2023/08/09 10:59:13;;;;;;;2.45;1.00;;;;;;;;;;5072005;28;20026;-83
2023/08/09 11:01:39;;;;;;;1.55;1.17;;;;;;;;;;5073768;28;20135;-79
2023/08/09 11:04:08;;;;;;;0.95;0.95;;;;;;;;;;5074336;28;20015;-74
2023/08/09 11:06:44;;;;;;;1.40;1.30;;;;;;;;;;5074557;28;20471;-76
2023/08/09 11:09:14;;;;;;;1.42;0.90;;;;;;;;;;5072728;28;20032;-77
2023/08/09 11:11:40;;;;;;;3.08;0.85;;;;;;;;;;5072780;28;21108;-78
2023/08/09 11:14:06;;;;;;;1.02;0.90;;;;;;;;;;5076201;28;20513;-75
2023/08/09 11:16:32;;;;;;;1.75;1.00;;;;;;;;;;5072746;28;20123;-77
2023/08/09 11:19:07;;;;;;;2.45;1.08;;;;;;;;;;5073535;28;20020;-78
2023/08/09 11:21:39;;;;;;;1.30;1.05;;;;;;;;;;5074185;28;20020;-74
2023/08/09 11:24:07;;;;;;;1.08;0.82;;;;;;;;;;5074924;28;20117;-79
2023/08/09 11:26:33;;;;;;;1.67;0.88;;;;;;;;;;5075970;28;20020;-77
2023/08/09 11:29:00;;;;;;;2.38;1.00;;;;;;;;;;5071738;28;20025;-77
2023/08/09 11:31:26;;;;;;;1.38;0.93;;;;;;;;;;5072075;28;20032;-78
2023/08/09 11:33:55;;;;;;;0.90;0.90;;;;;;;;;;5071803;28;20118;-81
2023/08/09 11:36:21;;;;;;;1.70;1.15;;;;;;;;;;5071420;28;20035;-83
2023/08/09 11:38:46;;;;;;;2.65;0.90;;;;;;;;;;5090060;28;20050;-80
2023/08/09 11:41:15;;;;;;;1.83;1.00;;;;;;;;;;5076317;28;20070;-81
2023/08/09 11:43:40;;;;;;;1.10;1.00;;;;;;;;;;5076362;28;20688;-76
2023/08/09 11:46:06;;;;;;;2.70;1.02;;;;;;;;;;5078045;28;20074;-78
2023/08/09 11:48:32;;;;;;;1.55;1.30;;;;;;;;;;5076151;28;20028;-80
2023/08/09 11:51:11;;;;;;;0.95;0.95;;;;;;;;;;5076666;28;20021;-74
2023/08/09 11:53:37;;;;;;;1.67;0.93;;;;;;;;;;5076005;28;20018;-77
2023/08/09 11:56:04;;;;;;;0.80;0.77;;;;;;;;;;5077338;28;20447;-79
2023/08/09 11:58:32;;;;;;;0.85;0.85;;;;;;;;;;5076698;28;20078;-79
2023/08/09 12:00:58;;;;;;;1.50;1.02;;;;;;;;;;5072980;28;20082;-77
2023/08/09 12:03:24;;;;;;;1.02;0.90;;;;;;;;;;5076028;28;20086;-76
2023/08/09 12:05:53;;;;;;;2.17;1.00;;;;;;;;;;5079445;28;20024;-80
2023/08/09 12:08:31;;;;;;;1.13;1.00;;;;;;;;;;5078066;28;20474;-77
2023/08/09 12:10:56;;;;;;;0.97;0.97;;;;;;;;;;5080624;28;20029;-78
2023/08/09 12:13:22;;;;;;;1.20;1.10;;;;;;;;;;5074542;28;20260;-77
2023/08/09 12:15:47;;;;;;;0.93;0.93;;;;;;;;;;5077456;28;20108;-82
2023/08/09 12:18:12;;;;;;;2.10;1.13;;;;;;;;;;5078353;28;20052;-79
2023/08/09 12:20:38;;;;;;;0.98;0.90;;;;;;;;;;5076453;28;20435;-79
2023/08/09 12:23:03;;;;;;;1.73;1.00;;;;;;;;;;5078416;28;20819;-79
2023/08/09 12:25:28;;;;;;;1.85;1.00;;;;;;;;;;5074932;28;20035;-78
2023/08/09 12:27:54;;;;;;;2.15;0.90;;;;;;;;;;5078740;28;20028;-77
2023/08/09 12:30:19;;;;;;;1.08;1.08;;;;;;;;;;5077048;28;20032;-77
2023/08/09 12:32:45;;;;;;;1.63;1.00;;;;;;;;;;5078752;28;20423;-76
2023/08/09 12:35:10;;;;;;;1.13;1.00;;;;;;;;;;5075934;28;20043;-79
2023/08/09 12:37:37;;;;;;;1.40;0.98;;;;;;;;;;5076726;28;20048;-78
2023/08/09 12:40:05;;;;;;;1.00;0.90;;;;;;;;;;5075823;28;20059;-80
2023/08/09 12:42:31;;;;;;;1.67;1.00;;;;;;;;;;5076831;28;20126;-77
2023/08/09 12:44:56;;;;;;;1.75;1.08;;;;;;;;;;5074445;28;20123;-78
2023/08/09 12:47:21;;;;;;;3.35;0.90;;;;;;;;;;5074728;28;20032;-78
2023/08/09 12:49:47;;;;;;;1.10;0.90;;;;;;;;;;5072219;28;20031;-78
2023/08/09 12:52:12;;;;;;;1.00;0.90;;;;;;;;;;5072873;28;20128;-82
2023/08/09 12:54:37;;;;;;;1.73;1.10;;;;;;;;;;5075126;28;20064;-79
2023/08/09 12:57:03;;;;;;;0.88;0.88;;;;;;;;;;5076533;28;20337;-76
2023/08/09 12:59:28;;;;;;;1.10;1.10;;;;;;;;;;5071804;28;20035;-77
2023/08/09 13:01:54;;;;;;;1.00;1.00;;;;;;;;;;5075673;28;20032;-75
2023/08/09 13:04:23;;;;;;;1.05;1.00;;;;;;;;;;5078335;28;20020;-77
2023/08/09 13:06:49;;;;;;;1.10;1.00;;;;;;;;;;5074548;28;21866;-76
2023/08/09 13:09:14;;;;;;;1.23;1.10;;;;;;;;;;5076630;28;20114;-78
2023/08/09 13:11:40;;;;;;;1.40;0.80;;;;;;;;;;5077965;28;20020;-76
2023/08/09 13:14:05;;;;;;;1.02;1.02;;;;;;;;;;5074882;28;20016;-77
2023/08/09 13:16:31;;;;;;;1.48;1.00;;;;;;;;;;5074336;28;20028;-75
2023/08/09 13:18:57;;;;;;;6.63;1.10;;;;;;;;;;5073523;28;20020;-81
2023/08/09 13:21:22;;;;;;;1.52;1.20;;;;;;;;;;5073368;28;20083;-81
2023/08/09 13:23:47;;;;;;;1.33;0.98;;;;;;;;;;5096983;28;20036;-75
2023/08/09 13:26:13;;;;;;;2.50;1.20;;;;;;;;;;5073180;28;20028;-77
2023/08/09 13:28:38;;;;;;;1.05;0.95;;;;;;;;;;5073052;28;20040;-77
2023/08/09 13:31:04;;;;;;;1.85;0.80;;;;;;;;;;5076813;28;20023;-75
2023/08/09 13:33:30;;;;;;;1.10;1.00;;;;;;;;;;5077690;28;20249;-81
2023/08/09 13:35:55;;;;;;;4.18;1.20;;;;;;;;;;5076107;28;20043;-79
2023/08/09 13:38:27;;;;;;;1.95;1.10;;;;;;;;;;5071890;28;20058;-78
2023/08/09 13:40:56;;;;;;;1.00;1.00;;;;;;;;;;5075772;28;20541;-81
2023/08/09 13:43:21;;;;;;;;;;;;;;;;;;5076065;28;20035;-77
2023/08/09 13:45:47;;;;;;;4.00;1.10;;;;;;;;;;5076227;28;19908;-81
2023/08/09 13:48:12;;;;;;;1.38;1.20;;;;;;;;;;5081569;28;20077;-79
2023/08/09 13:50:37;;;;;;;1.13;1.10;;;;;;;;;;5080654;28;20147;-76
2023/08/09 13:53:03;;;;;;;1.27;1.17;;;;;;;;;;5074794;28;20020;-79
2023/08/09 13:55:28;;;;;;;2.35;1.05;;;;;;;;;;5070579;28;20100;-76
2023/08/09 13:57:54;;;;;;;0.90;0.90;;;;;;;;;;5067067;28;20042;-76
2023/08/09 14:00:19;;;;;;;1.45;1.35;;;;;;;;;;5062102;28;20367;-75
2023/08/09 14:02:45;;;;;;;4.00;2.28;;;;;;;;;;5094928;28;20277;-78
2023/08/09 14:05:10;;;;;;;1.20;1.10;;;;;;;;;;5064516;28;20331;-77
2023/08/09 14:07:36;;;;;;;1.92;1.08;;;;;;;;;;5075318;28;20042;-74
2023/08/09 14:10:01;;;;;;;1.10;1.00;;;;;;;;;;5080314;28;20046;-76
2023/08/09 14:12:26;;;;;;;1.25;1.05;;;;;;;;;;5078310;28;20050;-74
2023/08/09 14:14:52;;;;;;;2.38;1.02;;;;;;;;;;5076552;28;20028;-74
2023/08/09 14:17:18;;;;;;;1.10;1.08;;;;;;;;;;5079647;28;20401;-74
2023/08/09 14:19:44;;;;;;;1.40;1.10;;;;;;;;;;5075238;28;20101;-75
2023/08/09 14:22:10;;;;;;;2.97;1.20;;;;;;;;;;5067645;28;20043;-77
2023/08/09 14:24:36;;;;;;;1.50;1.13;;;;;;;;;;5077944;28;20040;-75
2023/08/09 14:27:01;;;;;;;1.40;1.25;;;;;;;;;;5068803;28;20023;-76
2023/08/09 14:29:26;;;;;;;1.00;1.00;;;;;;;;;;5062662;28;20028;-76
2023/08/09 14:31:52;;;;;;;1.08;1.08;;;;;;;;;;5061668;28;20038;-77
2023/08/09 14:34:17;;;;;;;1.38;1.27;;;;;;;;;;5066184;28;20028;-75
2023/08/09 14:36:44;;;;;;;0.93;0.93;;;;;;;;;;5066058;28;20113;-77
2023/08/09 14:39:09;;;;;;;1.23;1.20;;;;;;;;;;5060276;28;20044;-77